createdAt,value
2023-03-10T00:00:53.176Z,59.56
2023-03-10T00:03:40.018Z,59.48
2023-03-10T00:06:28.599Z,59.54
2023-03-10T00:09:15.979Z,59.90
2023-03-10T00:12:03.151Z,59.94
2023-03-10T00:14:50.109Z,60.32
2023-03-10T00:17:37.099Z,59.99
2023-03-10T00:20:28.259Z,60.42
2023-03-10T00:23:15.272Z,59.62
2023-03-10T00:26:02.446Z,60.13
2023-03-10T00:28:49.346Z,59.56
2023-03-10T00:31:42.713Z,60.39
2023-03-10T00:34:33.661Z,60.44
2023-03-10T00:37:20.624Z,59.67
2023-03-10T00:40:13.002Z,59.76
2023-03-10T00:43:00.756Z,59.77
2023-03-10T00:45:47.797Z,59.57
2023-03-10T00:48:34.646Z,59.58
2023-03-10T00:51:22.306Z,59.52
2023-03-10T00:54:10.189Z,60.10
2023-03-10T00:56:57.173Z,59.66
2023-03-10T00:59:50.278Z,59.80
2023-03-10T01:02:41.280Z,59.93
2023-03-10T01:05:28.565Z,60.58
2023-03-10T01:08:15.688Z,60.26
2023-03-10T01:11:02.854Z,60.45
2023-03-10T01:13:50.603Z,60.27
2023-03-10T01:16:37.702Z,59.68
2023-03-10T01:19:04.968Z,60.53
2023-03-10T01:21:34.718Z,59.91
2023-03-10T01:24:02.846Z,59.75
2023-03-10T01:26:30.187Z,59.91
2023-03-10T01:28:57.209Z,60.71
2023-03-10T01:31:24.425Z,60.09
2023-03-10T01:33:51.671Z,60.23
2023-03-10T01:36:23.050Z,60.26
2023-03-10T01:38:50.119Z,59.92
2023-03-10T01:41:17.676Z,60.76
2023-03-10T01:43:47.486Z,60.89
2023-03-10T01:46:38.332Z,60.84
2023-03-10T01:49:22.378Z,60.14
2023-03-10T01:51:55.710Z,60.06
2023-03-10T01:54:31.208Z,60.04
2023-03-10T01:56:59.002Z,60.29
2023-03-10T01:59:27.472Z,60.08
2023-03-10T02:01:57.850Z,61.04
2023-03-10T02:04:35.822Z,60.44
2023-03-10T02:07:05.178Z,60.19
2023-03-10T02:09:35.758Z,60.17
2023-03-10T02:12:05.081Z,60.78
2023-03-10T02:14:34.653Z,61.05
2023-03-10T02:17:04.497Z,60.71
2023-03-10T02:19:58.652Z,60.82
2023-03-10T02:22:26.893Z,60.63
2023-03-10T02:25:08.822Z,61.07
2023-03-10T02:27:38.035Z,60.26
2023-03-10T02:30:25.910Z,60.52
2023-03-10T02:33:00.260Z,60.83
2023-03-10T02:35:27.844Z,60.51
2023-03-10T02:37:59.578Z,60.20
2023-03-10T02:40:34.623Z,61.35
2023-03-10T02:43:13.108Z,60.73
2023-03-10T02:45:43.901Z,61.04
2023-03-10T02:48:14.832Z,60.28
2023-03-10T02:50:45.546Z,60.63
2023-03-10T02:53:25.714Z,61.17
2023-03-10T02:55:54.021Z,61.35
2023-03-10T02:58:22.966Z,60.90
2023-03-10T03:00:50.266Z,60.67
2023-03-10T03:03:19.861Z,60.93
2023-03-10T03:05:48.039Z,60.33
2023-03-10T03:08:15.751Z,60.62
2023-03-10T03:10:43.827Z,61.37
2023-03-10T03:13:12.076Z,61.24
2023-03-10T03:15:39.664Z,60.83
2023-03-10T03:18:08.435Z,60.82
2023-03-10T03:20:38.099Z,60.90
2023-03-10T03:23:05.715Z,61.10
2023-03-10T03:25:36.894Z,61.22
2023-03-10T03:28:05.694Z,60.74
2023-03-10T03:30:34.016Z,60.86
2023-03-10T03:33:04.053Z,61.20
2023-03-10T03:35:33.778Z,60.74
2023-03-10T03:38:01.882Z,60.78
2023-03-10T03:40:31.510Z,61.35
2023-03-10T03:42:58.426Z,61.22
2023-03-10T03:45:27.658Z,61.37
2023-03-10T03:47:56.257Z,60.95
2023-03-10T03:50:24.969Z,61.25
2023-03-10T03:52:53.957Z,60.97
2023-03-10T03:55:23.196Z,61.15
2023-03-10T03:57:52.494Z,61.05
2023-03-10T04:00:23.498Z,61.33
2023-03-10T04:02:56.564Z,61.17
2023-03-10T04:05:24.258Z,61.45
2023-03-10T04:07:52.376Z,61.53
2023-03-10T04:10:23.652Z,61.53
2023-03-10T04:12:51.118Z,61.08
2023-03-10T04:15:18.264Z,61.48
2023-03-10T04:17:45.388Z,61.38
2023-03-10T04:20:14.324Z,61.05
2023-03-10T04:22:44.722Z,61.56
2023-03-10T04:25:13.250Z,61.12
2023-03-10T04:27:41.238Z,61.59
2023-03-10T04:30:12.280Z,61.47
2023-03-10T04:32:41.295Z,61.33
2023-03-10T04:35:12.771Z,61.32
2023-03-10T04:37:41.417Z,61.04
2023-03-10T04:40:12.831Z,61.67
2023-03-10T04:42:41.023Z,61.46
2023-03-10T04:45:08.862Z,61.00
2023-03-10T04:47:36.448Z,61.21
2023-03-10T04:50:04.604Z,61.10
2023-03-10T04:52:31.543Z,61.10
2023-03-10T04:54:58.746Z,61.29
2023-03-10T04:57:25.887Z,61.09
2023-03-10T04:59:54.132Z,61.44
2023-03-10T05:02:22.847Z,61.69
2023-03-10T05:04:50.832Z,61.31
2023-03-10T05:07:17.979Z,61.62
2023-03-10T05:09:48.402Z,61.20
2023-03-10T05:12:15.603Z,61.69
2023-03-10T05:14:42.668Z,61.61
2023-03-10T05:17:11.003Z,61.63
2023-03-10T05:19:38.896Z,61.44
2023-03-10T05:22:07.683Z,61.60
2023-03-10T05:24:36.801Z,61.25
2023-03-10T05:27:04.290Z,61.32
2023-03-10T05:29:31.724Z,61.34
2023-03-10T05:32:09.212Z,61.71
2023-03-10T05:34:39.395Z,61.77
2023-03-10T05:37:06.452Z,61.21
2023-03-10T05:39:34.299Z,61.44
2023-03-10T05:42:25.246Z,61.55
2023-03-10T05:45:12.403Z,61.37
2023-03-10T05:47:59.365Z,61.67
2023-03-10T05:50:46.362Z,61.69
2023-03-10T05:53:33.440Z,61.75
2023-03-10T05:56:27.027Z,61.53
2023-03-10T05:59:18.527Z,61.95
2023-03-10T06:02:05.944Z,61.47
2023-03-10T06:04:52.809Z,61.74
2023-03-10T06:07:39.831Z,61.75
2023-03-10T06:10:27.487Z,61.52
2023-03-10T06:13:14.588Z,61.85
2023-03-10T06:16:01.516Z,61.80
2023-03-10T06:18:49.434Z,61.61
2023-03-10T06:21:36.366Z,61.50
2023-03-10T06:24:23.372Z,61.51
2023-03-10T06:27:10.173Z,61.58
2023-03-10T06:29:57.417Z,61.90
2023-03-10T06:32:44.399Z,61.75
2023-03-10T06:35:33.787Z,61.85
2023-03-10T06:38:20.648Z,61.89
2023-03-10T06:41:07.699Z,61.90
2023-03-10T06:43:55.468Z,61.34
2023-03-10T06:46:42.449Z,61.76
2023-03-10T06:49:29.376Z,61.92
2023-03-10T06:52:16.322Z,61.64
2023-03-10T06:55:03.352Z,61.88
2023-03-10T06:57:50.419Z,61.89
2023-03-10T07:00:37.912Z,62.28
2023-03-10T07:03:24.891Z,61.81
2023-03-10T07:06:12.503Z,61.97
2023-03-10T07:08:59.600Z,62.00
2023-03-10T07:11:47.219Z,62.66
2023-03-10T07:14:34.244Z,62.35
2023-03-10T07:17:22.708Z,62.10
2023-03-10T07:20:10.131Z,61.99
2023-03-10T07:22:56.980Z,62.29
2023-03-10T07:25:44.127Z,62.13
2023-03-10T07:28:31.203Z,62.08
2023-03-10T07:31:23.112Z,62.49
2023-03-10T07:34:10.019Z,61.82
2023-03-10T07:36:57.068Z,62.25
2023-03-10T07:39:43.964Z,62.21
2023-03-10T07:42:30.933Z,62.60
2023-03-10T07:45:18.390Z,62.56
2023-03-10T07:48:05.369Z,62.39
2023-03-10T07:50:52.236Z,62.71
2023-03-10T07:53:39.322Z,62.63
2023-03-10T07:56:27.845Z,62.63
2023-03-10T07:59:15.063Z,62.60
2023-03-10T08:02:01.942Z,62.38
2023-03-10T08:04:49.114Z,63.07
2023-03-10T08:07:36.055Z,62.90
2023-03-10T08:10:23.830Z,62.08
2023-03-10T08:13:10.752Z,63.02
2023-03-10T08:16:01.198Z,62.80
2023-03-10T08:18:49.776Z,62.97
2023-03-10T08:21:36.864Z,62.71
2023-03-10T08:24:24.058Z,62.32
2023-03-10T08:27:11.210Z,62.52
2023-03-10T08:29:58.153Z,62.29
2023-03-10T08:32:45.241Z,62.36
2023-03-10T08:35:32.282Z,63.26
2023-03-10T08:38:19.202Z,62.38
2023-03-10T08:41:06.237Z,62.64
2023-03-10T08:43:53.265Z,62.74
2023-03-10T08:46:43.558Z,63.43
2023-03-10T08:49:33.781Z,62.94
2023-03-10T08:52:20.675Z,62.48
2023-03-10T08:55:07.736Z,63.37
2023-03-10T08:57:54.807Z,62.79
2023-03-10T09:00:42.103Z,62.58
2023-03-10T09:03:32.784Z,62.37
2023-03-10T09:06:19.803Z,63.21
2023-03-10T09:09:06.775Z,63.11
2023-03-10T09:11:56.025Z,62.68
2023-03-10T09:14:42.963Z,62.69
2023-03-10T09:17:29.957Z,63.01
2023-03-10T09:20:16.830Z,63.28
2023-03-10T09:23:04.012Z,63.35
2023-03-10T09:25:50.998Z,62.77
2023-03-10T09:28:38.406Z,62.96
2023-03-10T09:31:26.866Z,62.87
2023-03-10T09:34:14.077Z,62.86
2023-03-10T09:37:01.311Z,62.81
2023-03-10T09:39:48.230Z,62.79
2023-03-10T09:42:56.357Z,62.82
2023-03-10T09:46:13.964Z,62.67
2023-03-10T09:49:09.994Z,62.51
2023-03-10T09:52:04.089Z,62.60
2023-03-10T09:55:22.753Z,62.57
2023-03-10T09:58:12.259Z,62.66
2023-03-10T10:01:03.243Z,62.41
2023-03-10T10:04:00.150Z,62.12
2023-03-10T10:06:53.003Z,61.80
2023-03-10T10:10:00.112Z,61.79
2023-03-10T10:12:47.180Z,62.27
2023-03-10T10:15:41.081Z,61.56
2023-03-10T10:18:41.630Z,61.49
2023-03-10T10:21:43.202Z,60.90
2023-03-10T10:24:30.411Z,60.97
2023-03-10T10:27:18.000Z,60.86
2023-03-10T10:30:05.775Z,60.89
2023-03-10T10:32:52.759Z,60.51
2023-03-10T10:35:43.971Z,61.33
2023-03-10T10:38:44.870Z,60.34
2023-03-10T10:41:46.319Z,60.28
2023-03-10T10:44:36.815Z,61.06
2023-03-10T10:47:23.881Z,60.69
2023-03-10T10:50:11.222Z,60.94
2023-03-10T10:52:58.199Z,59.92
2023-03-10T10:55:53.458Z,59.27
2023-03-10T10:58:58.376Z,59.79
2023-03-10T11:01:45.466Z,59.19
2023-03-10T11:04:33.413Z,59.66
2023-03-10T11:07:31.112Z,59.70
2023-03-10T11:10:18.016Z,58.88
2023-03-10T11:13:22.026Z,59.20
2023-03-10T11:16:20.265Z,59.06
2023-03-10T11:19:16.136Z,58.81
2023-03-10T11:22:07.633Z,57.92
2023-03-10T11:25:13.631Z,57.84
2023-03-10T11:28:25.293Z,57.71
2023-03-10T11:31:18.407Z,58.16
2023-03-10T11:34:35.256Z,57.32
2023-03-10T11:37:55.451Z,57.34
2023-03-10T11:41:01.791Z,57.47
2023-03-10T11:44:07.346Z,57.01
2023-03-10T11:47:03.075Z,57.18
2023-03-10T11:49:58.099Z,57.05
2023-03-10T11:52:46.751Z,51.80
2023-03-10T11:55:41.758Z,54.30
2023-03-10T11:58:22.558Z,54.52
2023-03-10T12:00:53.948Z,54.59
2023-03-10T12:04:10.654Z,54.59
2023-03-10T12:07:07.298Z,54.92
2023-03-10T12:10:05.699Z,54.85
2023-03-10T12:13:02.196Z,54.95
2023-03-10T12:15:51.991Z,55.25
2023-03-10T12:18:39.413Z,55.07
2023-03-10T12:21:39.384Z,55.19
2023-03-10T12:25:12.466Z,55.32
2023-03-10T12:28:37.453Z,55.10
2023-03-10T12:31:32.919Z,55.38
2023-03-10T12:34:34.057Z,55.53
2023-03-10T12:37:32.535Z,55.24
2023-03-10T12:40:19.348Z,55.18
2023-03-10T12:43:06.070Z,55.48
2023-03-10T12:46:06.551Z,55.56
2023-03-10T12:48:59.950Z,55.53
2023-03-10T12:51:48.876Z,55.51
2023-03-10T12:55:01.176Z,55.71
2023-03-10T12:58:04.986Z,55.88
2023-03-10T13:01:09.832Z,55.65
2023-03-10T13:04:04.588Z,55.37
2023-03-10T13:07:00.118Z,55.89
2023-03-10T13:09:56.581Z,55.86
2023-03-10T13:12:56.158Z,55.88
2023-03-10T13:15:48.882Z,56.24
2023-03-10T13:18:41.182Z,56.13
2023-03-10T13:21:42.647Z,56.67
2023-03-10T13:24:58.943Z,56.95
2023-03-10T13:27:49.943Z,56.20
2023-03-10T13:30:45.752Z,56.38
2023-03-10T13:33:52.974Z,56.71
2023-03-10T13:36:41.587Z,56.80
2023-03-10T13:39:40.279Z,57.02
2023-03-10T13:42:44.207Z,56.79
2023-03-10T13:45:43.235Z,57.54
2023-03-10T13:48:33.518Z,57.11
2023-03-10T13:51:25.015Z,57.64
2023-03-10T13:54:13.930Z,57.69
2023-03-10T13:57:03.303Z,57.32
2023-03-10T13:59:51.638Z,57.14
2023-03-10T14:02:52.895Z,57.40
2023-03-10T14:06:05.635Z,57.99
2023-03-10T14:08:52.555Z,57.71
2023-03-10T14:12:00.204Z,57.98
2023-03-10T14:14:53.874Z,58.11
2023-03-10T14:17:54.190Z,58.47
2023-03-10T14:20:52.462Z,58.55
2023-03-10T14:23:39.156Z,58.26
2023-03-10T14:26:35.033Z,57.98
2023-03-10T14:29:26.310Z,58.33
2023-03-10T14:32:13.136Z,58.41
2023-03-10T14:34:59.998Z,58.32
2023-03-10T14:37:46.706Z,58.87
2023-03-10T14:40:33.802Z,58.73
2023-03-10T14:43:22.367Z,59.03
2023-03-10T14:46:10.945Z,58.88
2023-03-10T14:48:59.135Z,59.23
2023-03-10T14:51:46.015Z,58.97
2023-03-10T14:54:38.542Z,59.37
2023-03-10T14:57:27.665Z,58.57
2023-03-10T15:00:15.354Z,59.10
2023-03-10T15:03:02.224Z,58.87
2023-03-10T15:05:50.112Z,58.98
2023-03-10T15:08:37.686Z,59.34
2023-03-10T15:11:36.565Z,59.23
2023-03-10T15:14:39.367Z,59.29
2023-03-10T15:17:26.136Z,59.29
2023-03-10T15:20:12.896Z,59.23
2023-03-10T15:22:59.724Z,59.42
2023-03-10T15:25:46.537Z,59.26
2023-03-10T15:28:34.889Z,59.31
2023-03-10T15:31:23.214Z,59.06
2023-03-10T15:34:10.061Z,59.49
2023-03-10T15:36:57.069Z,59.02
2023-03-10T15:39:43.978Z,59.29
2023-03-10T15:42:30.700Z,59.33
2023-03-10T15:45:17.571Z,59.16
2023-03-10T15:48:05.570Z,59.07
2023-03-10T15:50:52.431Z,58.88
2023-03-10T15:53:39.215Z,58.98
2023-03-10T15:56:30.506Z,59.03
2023-03-10T15:59:17.449Z,58.92
2023-03-10T16:02:04.293Z,58.93
2023-03-10T16:04:51.290Z,58.66
2023-03-10T16:07:38.076Z,59.09
2023-03-10T16:10:26.114Z,58.89
2023-03-10T16:13:12.843Z,58.65
2023-03-10T16:15:59.632Z,58.57
2023-03-10T16:18:46.440Z,58.52
2023-03-10T16:21:33.984Z,58.61
2023-03-10T16:24:20.760Z,58.49
2023-03-10T16:27:08.578Z,58.52
2023-03-10T16:29:55.376Z,58.77
2023-03-10T16:32:42.221Z,58.72
2023-03-10T16:35:29.178Z,58.73
2023-03-10T16:38:15.976Z,58.93
2023-03-10T16:41:09.369Z,58.93
2023-03-10T16:43:56.442Z,58.88
2023-03-10T16:46:46.413Z,58.28
2023-03-10T16:49:34.450Z,58.93
2023-03-10T16:52:21.202Z,58.45
2023-03-10T16:55:07.960Z,59.08
2023-03-10T16:57:54.864Z,59.07
2023-03-10T17:00:42.002Z,58.40
2023-03-10T17:03:28.844Z,58.39
2023-03-10T17:06:15.965Z,59.04
2023-03-10T17:09:03.087Z,58.44
2023-03-10T17:11:55.078Z,59.21
2023-03-10T17:14:42.733Z,58.81
2023-03-10T17:17:29.916Z,58.88
2023-03-10T17:20:16.744Z,58.23
2023-03-10T17:23:03.599Z,59.33
2023-03-10T17:25:51.707Z,58.76
2023-03-10T17:28:38.469Z,58.67
2023-03-10T17:31:34.058Z,59.39
2023-03-10T17:34:23.427Z,58.76
2023-03-10T17:37:10.628Z,58.60
2023-03-10T17:39:57.379Z,59.57
2023-03-10T17:42:44.285Z,59.01
2023-03-10T17:45:31.554Z,59.01
2023-03-10T17:48:18.283Z,59.27
2023-03-10T17:51:07.365Z,58.77
2023-03-10T17:53:54.504Z,59.12
2023-03-10T17:56:41.439Z,58.67
2023-03-10T17:59:30.886Z,58.83
2023-03-10T18:02:17.859Z,59.63
2023-03-10T18:05:04.724Z,59.96
2023-03-10T18:07:51.474Z,58.63
2023-03-10T18:10:38.276Z,59.12
2023-03-10T18:13:28.167Z,59.05
2023-03-10T18:16:15.034Z,59.78
2023-03-10T18:19:01.832Z,59.77
2023-03-10T18:21:48.921Z,59.55
2023-03-10T18:24:35.844Z,59.19
2023-03-10T18:27:22.553Z,60.03
2023-03-10T18:30:09.300Z,60.00
2023-03-10T18:32:56.305Z,59.38
2023-03-10T18:35:43.092Z,60.22
2023-03-10T18:38:35.279Z,59.85
2023-03-10T18:41:23.349Z,60.15
2023-03-10T18:44:10.462Z,60.16
2023-03-10T18:46:57.248Z,60.33
2023-03-10T18:49:44.030Z,60.01
2023-03-10T18:52:35.148Z,59.32
2023-03-10T18:55:22.103Z,60.08
2023-03-10T18:58:08.923Z,58.92
2023-03-10T19:00:55.916Z,60.25
2023-03-10T19:03:42.641Z,59.90
2023-03-10T19:06:29.652Z,60.16
2023-03-10T19:09:16.423Z,60.02
2023-03-10T19:12:03.147Z,59.48
2023-03-10T19:14:49.919Z,60.32
2023-03-10T19:17:36.644Z,60.22
2023-03-10T19:20:25.552Z,59.19
2023-03-10T19:23:12.313Z,60.51
2023-03-10T19:25:59.120Z,60.53
2023-03-10T19:28:45.909Z,60.21
2023-03-10T19:31:35.086Z,60.48
2023-03-10T19:34:21.921Z,59.80
2023-03-10T19:37:08.766Z,59.31
2023-03-10T19:39:55.546Z,60.22
2023-03-10T19:42:42.245Z,60.16
2023-03-10T19:45:30.995Z,60.38
2023-03-10T19:48:17.750Z,60.06
2023-03-10T19:51:04.574Z,60.14
2023-03-10T19:53:51.757Z,59.90
2023-03-10T19:56:39.991Z,59.90
2023-03-10T19:59:26.725Z,60.46
2023-03-10T20:02:13.492Z,60.17
2023-03-10T20:05:00.266Z,59.55
2023-03-10T20:07:47.306Z,60.29
2023-03-10T20:10:35.543Z,59.60
2023-03-10T20:13:22.310Z,60.32
2023-03-10T20:16:09.180Z,60.59
2023-03-10T20:18:56.023Z,59.75
2023-03-10T20:21:42.808Z,60.33
2023-03-10T20:24:29.525Z,61.07
2023-03-10T20:27:16.285Z,59.89
2023-03-10T20:30:02.993Z,60.30
2023-03-10T20:32:49.783Z,60.24
2023-03-10T20:35:37.636Z,60.49
2023-03-10T20:38:24.412Z,60.05
2023-03-10T20:41:11.340Z,60.74
2023-03-10T20:43:59.309Z,60.44
2023-03-10T20:46:46.112Z,61.03
2023-03-10T20:49:33.324Z,60.58
2023-03-10T20:52:20.049Z,60.56
2023-03-10T20:55:07.133Z,61.12
2023-03-10T20:57:54.156Z,61.19
2023-03-10T21:00:43.048Z,60.92
2023-03-10T21:03:29.750Z,61.43
2023-03-10T21:06:16.487Z,61.20
2023-03-10T21:09:03.241Z,61.16
2023-03-10T21:11:50.030Z,61.48
2023-03-10T21:14:36.826Z,61.35
2023-03-10T21:17:23.627Z,60.88
2023-03-10T21:20:10.599Z,61.27
2023-03-10T21:22:59.536Z,61.54
2023-03-10T21:25:46.841Z,61.77
2023-03-10T21:28:33.573Z,61.12
2023-03-10T21:31:20.404Z,61.66
2023-03-10T21:34:07.142Z,62.39
2023-03-10T21:36:53.878Z,61.29
2023-03-10T21:39:40.671Z,61.67
2023-03-10T21:42:27.474Z,61.52
2023-03-10T21:45:14.260Z,62.08
2023-03-10T21:48:01.029Z,61.46
2023-03-10T21:50:47.817Z,62.10
2023-03-10T21:53:34.667Z,62.17
2023-03-10T21:56:21.444Z,62.19
2023-03-10T21:59:08.942Z,62.27
2023-03-10T22:01:55.793Z,61.46
2023-03-10T22:04:42.654Z,62.02
2023-03-10T22:07:29.430Z,62.52
2023-03-10T22:10:16.195Z,62.65
2023-03-10T22:13:03.098Z,62.94
2023-03-10T22:15:50.030Z,62.17
2023-03-10T22:18:36.799Z,62.67
2023-03-10T22:21:23.754Z,62.06
2023-03-10T22:24:12.173Z,63.01
2023-03-10T22:27:00.317Z,62.77
2023-03-10T22:29:47.093Z,62.24
2023-03-10T22:32:33.879Z,62.91
2023-03-10T22:35:20.652Z,61.82
2023-03-10T22:38:07.877Z,62.34
2023-03-10T22:40:55.986Z,62.20
2023-03-10T22:43:42.851Z,62.91
2023-03-10T22:46:36.232Z,62.45
2023-03-10T22:49:22.981Z,62.06
2023-03-10T22:52:09.723Z,61.99
2023-03-10T22:54:56.618Z,62.60
2023-03-10T22:57:43.414Z,62.63
2023-03-10T23:00:35.897Z,63.12
2023-03-10T23:03:23.193Z,62.58
2023-03-10T23:06:09.934Z,63.55
2023-03-10T23:08:56.662Z,63.55
2023-03-10T23:11:43.869Z,63.25
2023-03-10T23:14:30.666Z,62.48
2023-03-10T23:17:17.436Z,62.66
2023-03-10T23:20:04.314Z,62.43
2023-03-10T23:22:52.197Z,63.09
2023-03-10T23:25:42.872Z,62.21
2023-03-10T23:28:31.492Z,62.30
2023-03-10T23:31:19.623Z,63.33
2023-03-10T23:34:06.524Z,62.29
2023-03-10T23:36:53.288Z,63.13
2023-03-10T23:39:40.006Z,62.85
2023-03-10T23:42:26.999Z,62.49
2023-03-10T23:45:13.794Z,62.68
2023-03-10T23:48:01.584Z,62.49
2023-03-10T23:50:59.634Z,63.34
2023-03-10T23:53:46.617Z,63.50
2023-03-10T23:56:33.417Z,63.33
2023-03-10T23:59:20.130Z,62.92
